Time;durP1;ratioP1;P1;durP2;ratioP2;P2;SDS_P1;SDS_P2;PMS_P1;PMS_P2;Temp;Humidity;BMP_temperature;BMP_pressure;BME280_temperature;BME280_humidity;BME280_pressure;Samples;Min_cycle;Max_cycle;Signal;HPM_P1;HPM_P2
2023/09/18 00:00:21;;;;;;;176.77;44.85;;;;;;;;;;5073078;28;20085;-60
2023/09/18 00:02:48;;;;;;;143.02;41.63;;;;;;;;;;5073169;28;20048;-60
2023/09/18 00:05:15;;;;;;;208.25;47.25;;;;;;;;;;5072295;28;20036;-60
2023/09/18 00:07:43;;;;;;;105.28;41.50;;;;;;;;;;5073193;28;20048;-60
2023/09/18 00:10:10;;;;;;;174.13;45.97;;;;;;;;;;5072899;28;20059;-60
2023/09/18 00:12:36;;;;;;;174.45;47.10;;;;;;;;;;5072249;28;20112;-60
2023/09/18 00:15:02;;;;;;;139.43;43.53;;;;;;;;;;5072923;28;20041;-60
2023/09/18 00:17:29;;;;;;;162.23;44.28;;;;;;;;;;5072802;28;20056;-60
2023/09/18 00:19:55;;;;;;;179.38;44.58;;;;;;;;;;5072806;28;20102;-60
2023/09/18 00:22:21;;;;;;;140.85;41.42;;;;;;;;;;5072672;28;20464;-60
2023/09/18 00:24:48;;;;;;;161.00;42.72;;;;;;;;;;5072091;28;20052;-60
2023/09/18 00:27:15;;;;;;;235.55;47.30;;;;;;;;;;5072547;28;20516;-60
2023/09/18 00:29:42;;;;;;;119.68;40.45;;;;;;;;;;5072910;28;20158;-60
2023/09/18 00:32:08;;;;;;;108.10;38.80;;;;;;;;;;5072028;28;20055;-60
2023/09/18 00:34:34;;;;;;;94.53;37.50;;;;;;;;;;5072734;28;20044;-60
2023/09/18 00:37:00;;;;;;;122.78;37.05;;;;;;;;;;5072655;28;20040;-60
2023/09/18 00:39:27;;;;;;;151.07;41.22;;;;;;;;;;5071621;28;20085;-60
2023/09/18 00:41:54;;;;;;;159.85;43.58;;;;;;;;;;5072326;28;20048;-60
2023/09/18 00:44:21;;;;;;;109.07;38.65;;;;;;;;;;5072342;28;20056;-60
2023/09/18 00:46:47;;;;;;;66.65;38.88;;;;;;;;;;5070579;28;20357;-60
2023/09/18 00:49:14;;;;;;;63.75;38.05;;;;;;;;;;5072979;28;20055;-60
2023/09/18 00:51:40;;;;;;;64.63;36.92;;;;;;;;;;5072106;28;20067;-60
2023/09/18 00:54:07;;;;;;;55.17;37.95;;;;;;;;;;5069985;28;20408;-60
2023/09/18 00:56:34;;;;;;;66.40;38.95;;;;;;;;;;5072297;28;20124;-60
2023/09/18 00:59:02;;;;;;;51.90;38.08;;;;;;;;;;5072149;28;20084;-60
2023/09/18 01:01:29;;;;;;;60.35;37.30;;;;;;;;;;5071248;28;20381;-60
2023/09/18 01:03:57;;;;;;;55.05;37.40;;;;;;;;;;5071916;28;20080;-60
2023/09/18 01:06:27;;;;;;;59.50;38.45;;;;;;;;;;5071913;28;20092;-60
2023/09/18 01:08:54;;;;;;;53.60;37.45;;;;;;;;;;5071090;28;20503;-60
2023/09/18 01:11:26;;;;;;;49.90;35.80;;;;;;;;;;5071877;28;20441;-60
2023/09/18 01:14:02;;;;;;;52.72;35.90;;;;;;;;;;5071809;28;20036;-60
2023/09/18 01:16:33;;;;;;;50.60;35.65;;;;;;;;;;5071903;28;20550;-60
2023/09/18 01:18:59;;;;;;;54.20;36.00;;;;;;;;;;5071716;28;20072;-60
2023/09/18 01:21:25;;;;;;;53.25;36.65;;;;;;;;;;5070789;28;20061;-60
2023/09/18 01:23:51;;;;;;;53.13;38.33;;;;;;;;;;5071494;28;20044;-60
2023/09/18 01:26:17;;;;;;;56.08;37.22;;;;;;;;;;5071596;28;20121;-60
2023/09/18 01:28:44;;;;;;;59.85;37.45;;;;;;;;;;5052771;28;20099;-60
2023/09/18 01:31:10;;;;;;;53.20;32.40;;;;;;;;;;5071352;28;20403;-60
2023/09/18 01:33:37;;;;;;;56.60;36.25;;;;;;;;;;5071387;28;20040;-60
2023/09/18 01:36:04;;;;;;;58.80;33.72;;;;;;;;;;5067997;28;20115;-60
2023/09/18 01:38:30;;;;;;;52.17;34.63;;;;;;;;;;5071269;28;20040;-60
2023/09/18 01:40:56;;;;;;;54.17;34.22;;;;;;;;;;5071270;28;20048;-60
2023/09/18 01:43:22;;;;;;;44.10;32.83;;;;;;;;;;5070892;28;20048;-60
2023/09/18 01:45:48;;;;;;;51.47;34.30;;;;;;;;;;5071043;28;20124;-60
2023/09/18 01:48:15;;;;;;;45.22;33.85;;;;;;;;;;5070852;28;20098;-60
2023/09/18 01:50:41;;;;;;;45.65;32.53;;;;;;;;;;5070290;28;20139;-60
2023/09/18 01:53:07;;;;;;;51.55;33.15;;;;;;;;;;5071007;28;20044;-60
2023/09/18 01:55:33;;;;;;;44.75;33.38;;;;;;;;;;5071190;28;20048;-60
2023/09/18 01:58:00;;;;;;;44.65;33.28;;;;;;;;;;5069853;28;20096;-60
2023/09/18 02:00:26;;;;;;;46.20;33.05;;;;;;;;;;5069329;28;20044;-60
2023/09/18 02:02:52;;;;;;;45.92;32.10;;;;;;;;;;5070860;28;20044;-60
2023/09/18 02:05:18;;;;;;;41.40;31.35;;;;;;;;;;5068786;28;20056;-60
2023/09/18 02:07:44;;;;;;;44.25;31.08;;;;;;;;;;5070888;28;20410;-60
2023/09/18 02:10:12;;;;;;;47.55;34.75;;;;;;;;;;5070778;28;20463;-60
2023/09/18 02:12:39;;;;;;;45.35;33.13;;;;;;;;;;5070539;28;20056;-60
2023/09/18 02:15:06;;;;;;;50.05;33.75;;;;;;;;;;5071039;28;20052;-60
2023/09/18 02:17:33;;;;;;;45.75;33.80;;;;;;;;;;5069947;28;20051;-60
2023/09/18 02:20:04;;;;;;;45.78;33.35;;;;;;;;;;5070818;28;20048;-60
2023/09/18 02:22:32;;;;;;;45.50;34.47;;;;;;;;;;5070686;28;20059;-60
2023/09/18 02:24:58;;;;;;;47.25;34.00;;;;;;;;;;5069838;28;20507;-60
2023/09/18 02:27:24;;;;;;;46.03;34.70;;;;;;;;;;5070545;28;20172;-60
2023/09/18 02:29:53;;;;;;;51.55;36.03;;;;;;;;;;5070924;28;20044;-60
2023/09/18 02:32:19;;;;;;;45.53;32.72;;;;;;;;;;5069844;28;20454;-60
2023/09/18 02:34:45;;;;;;;49.22;31.27;;;;;;;;;;5070697;28;20036;-60
2023/09/18 02:37:11;;;;;;;43.70;33.47;;;;;;;;;;5070646;28;20048;-60
2023/09/18 02:39:38;;;;;;;46.13;32.90;;;;;;;;;;5069648;28;20077;-60
2023/09/18 02:42:04;;;;;;;40.95;31.45;;;;;;;;;;5070171;28;20498;-60
2023/09/18 02:44:30;;;;;;;44.17;33.10;;;;;;;;;;5070020;28;20381;-60
2023/09/18 02:46:56;;;;;;;39.50;30.58;;;;;;;;;;5069906;28;20116;-60
2023/09/18 02:49:22;;;;;;;42.55;32.30;;;;;;;;;;5070238;28;20055;-60
2023/09/18 02:51:49;;;;;;;37.08;30.20;;;;;;;;;;5070662;28;20492;-60
2023/09/18 02:54:16;;;;;;;39.22;30.48;;;;;;;;;;5069707;28;20048;-60
2023/09/18 02:56:42;;;;;;;39.00;29.17;;;;;;;;;;5070303;28;20059;-60
2023/09/18 02:59:08;;;;;;;40.03;29.63;;;;;;;;;;5070334;28;20131;-60
2023/09/18 03:01:34;;;;;;;41.83;30.30;;;;;;;;;;5069390;28;20526;-60
2023/09/18 03:04:01;;;;;;;38.25;30.17;;;;;;;;;;5070433;28;20036;-60
2023/09/18 03:06:27;;;;;;;37.72;30.02;;;;;;;;;;5070035;28;20072;-60
2023/09/18 03:08:53;;;;;;;38.15;30.65;;;;;;;;;;5070054;28;20051;-60
2023/09/18 03:11:19;;;;;;;38.35;30.83;;;;;;;;;;5072844;28;20051;-60
2023/09/18 03:13:46;;;;;;;40.83;31.52;;;;;;;;;;5071479;28;20484;-60
2023/09/18 03:16:13;;;;;;;38.80;30.77;;;;;;;;;;5063219;28;20515;-60
2023/09/18 03:18:39;;;;;;;40.05;31.65;;;;;;;;;;5073996;28;20086;-60
2023/09/18 03:21:05;;;;;;;43.58;31.73;;;;;;;;;;5071688;28;20048;-60
2023/09/18 03:23:31;;;;;;;39.15;29.77;;;;;;;;;;5073656;28;20461;-60
2023/09/18 03:25:59;;;;;;;36.90;29.70;;;;;;;;;;5073836;28;20365;-60
2023/09/18 03:28:25;;;;;;;34.38;29.17;;;;;;;;;;5073051;28;20441;-60
2023/09/18 03:30:51;;;;;;;37.60;30.20;;;;;;;;;;5073566;28;20082;-60
2023/09/18 03:33:18;;;;;;;44.53;31.20;;;;;;;;;;5073714;28;20048;-60
2023/09/18 03:35:48;;;;;;;37.08;30.02;;;;;;;;;;5072762;28;20048;-60
2023/09/18 03:38:15;;;;;;;40.85;31.58;;;;;;;;;;5073672;28;20052;-60
2023/09/18 03:40:41;;;;;;;38.78;30.25;;;;;;;;;;5073775;28;20365;-60
2023/09/18 03:43:08;;;;;;;39.45;30.17;;;;;;;;;;5072238;28;20052;-60
2023/09/18 03:45:34;;;;;;;36.67;29.63;;;;;;;;;;5072865;28;20044;-60
2023/09/18 03:48:00;;;;;;;38.40;29.65;;;;;;;;;;5073401;28;20067;-60
2023/09/18 03:50:27;;;;;;;39.40;32.30;;;;;;;;;;5072621;28;20052;-60
2023/09/18 03:52:53;;;;;;;38.83;31.20;;;;;;;;;;5073335;28;20476;-60
2023/09/18 03:55:19;;;;;;;39.88;31.42;;;;;;;;;;5071857;28;20397;-60
2023/09/18 03:57:48;;;;;;;36.45;30.73;;;;;;;;;;5072453;28;20052;-60
2023/09/18 04:00:15;;;;;;;46.50;32.95;;;;;;;;;;5073510;28;20052;-60
2023/09/18 04:02:41;;;;;;;39.33;31.23;;;;;;;;;;5073064;28;20207;-60
2023/09/18 04:05:07;;;;;;;43.50;30.80;;;;;;;;;;5072426;28;20043;-60
2023/09/18 04:07:33;;;;;;;41.05;31.45;;;;;;;;;;5072734;28;20041;-60
2023/09/18 04:10:00;;;;;;;41.05;31.63;;;;;;;;;;5072094;28;20067;-60
2023/09/18 04:12:26;;;;;;;40.92;32.83;;;;;;;;;;5073085;28;20503;-60
2023/09/18 04:14:52;;;;;;;40.63;32.10;;;;;;;;;;5073422;28;20417;-60
2023/09/18 04:17:18;;;;;;;40.67;32.47;;;;;;;;;;5071396;28;20078;-60
2023/09/18 04:19:45;;;;;;;41.67;31.17;;;;;;;;;;5072917;28;20043;-60
2023/09/18 04:22:11;;;;;;;41.55;31.48;;;;;;;;;;5072423;28;20044;-60
2023/09/18 04:24:37;;;;;;;45.45;33.00;;;;;;;;;;5072346;28;20040;-60
2023/09/18 04:27:04;;;;;;;39.50;30.02;;;;;;;;;;5072631;28;20051;-60
2023/09/18 04:29:30;;;;;;;40.70;32.22;;;;;;;;;;5072789;28;20054;-60
2023/09/18 04:31:57;;;;;;;37.65;30.17;;;;;;;;;;5071922;28;20565;-60
2023/09/18 04:34:23;;;;;;;39.92;30.35;;;;;;;;;;5072674;28;20056;-60
2023/09/18 04:36:50;;;;;;;38.05;29.70;;;;;;;;;;5072203;28;20036;-60
2023/09/18 04:39:16;;;;;;;35.70;29.95;;;;;;;;;;5071364;28;20044;-60
2023/09/18 04:41:42;;;;;;;37.70;30.27;;;;;;;;;;5072553;28;20052;-60
2023/09/18 04:44:09;;;;;;;36.42;27.73;;;;;;;;;;5072465;28;20051;-60
2023/09/18 04:46:35;;;;;;;34.08;27.95;;;;;;;;;;5071598;28;20048;-60
2023/09/18 04:49:03;;;;;;;35.35;28.45;;;;;;;;;;5072065;28;20113;-60
2023/09/18 04:51:32;;;;;;;35.35;28.30;;;;;;;;;;5072438;28;20056;-60
2023/09/18 04:53:58;;;;;;;37.10;27.65;;;;;;;;;;5071434;28;20045;-60
2023/09/18 04:56:26;;;;;;;35.20;27.05;;;;;;;;;;5072005;28;20037;-60
2023/09/18 04:58:52;;;;;;;32.75;27.60;;;;;;;;;;5072139;28;20049;-60
2023/09/18 05:01:18;;;;;;;34.10;26.23;;;;;;;;;;5071055;28;20070;-60
2023/09/18 05:03:45;;;;;;;33.28;25.92;;;;;;;;;;5072117;28;20049;-60
2023/09/18 05:06:11;;;;;;;35.00;26.42;;;;;;;;;;5070876;28;20066;-60
2023/09/18 05:08:37;;;;;;;32.85;26.27;;;;;;;;;;5072089;28;20048;-60
2023/09/18 05:11:04;;;;;;;31.92;24.77;;;;;;;;;;5072218;28;20052;-60
2023/09/18 05:13:30;;;;;;;32.78;25.63;;;;;;;;;;5070885;28;20088;-60
2023/09/18 05:15:58;;;;;;;34.33;25.02;;;;;;;;;;5071844;28;20429;-60
2023/09/18 05:18:24;;;;;;;30.90;25.40;;;;;;;;;;5071771;28;20091;-60
2023/09/18 05:20:50;;;;;;;34.83;25.50;;;;;;;;;;5071172;28;20041;-60
2023/09/18 05:23:17;;;;;;;30.38;24.38;;;;;;;;;;5069784;28;20045;-60
2023/09/18 05:25:44;;;;;;;32.65;24.42;;;;;;;;;;5071587;28;20049;-60
2023/09/18 05:28:10;;;;;;;30.00;24.85;;;;;;;;;;5069534;28;20033;-60
2023/09/18 05:30:40;;;;;;;30.10;23.73;;;;;;;;;;5071544;28;20052;-60
2023/09/18 05:33:08;;;;;;;31.33;23.63;;;;;;;;;;5070914;28;20041;-60
2023/09/18 05:35:36;;;;;;;27.85;22.65;;;;;;;;;;5070656;28;20055;-60
2023/09/18 05:38:03;;;;;;;27.58;22.55;;;;;;;;;;5072333;28;20400;-60
2023/09/18 05:40:29;;;;;;;27.10;21.70;;;;;;;;;;5071147;28;20044;-60
2023/09/18 05:42:56;;;;;;;30.45;21.65;;;;;;;;;;5070468;28;20476;-60
2023/09/18 05:45:22;;;;;;;28.23;21.80;;;;;;;;;;5071251;28;20047;-60
2023/09/18 05:47:49;;;;;;;29.92;21.00;;;;;;;;;;5070874;28;20131;-60
2023/09/18 05:50:16;;;;;;;31.50;20.00;;;;;;;;;;5070358;28;20516;-60
2023/09/18 05:52:49;;;;;;;30.95;20.35;;;;;;;;;;5071064;28;20050;-60
2023/09/18 05:55:15;;;;;;;35.58;23.52;;;;;;;;;;5071382;28;20475;-60
2023/09/18 05:57:42;;;;;;;27.88;21.33;;;;;;;;;;5070710;28;20036;-60
2023/09/18 06:00:12;;;;;;;27.73;20.75;;;;;;;;;;5070963;28;20056;-60
2023/09/18 06:02:39;;;;;;;29.45;20.98;;;;;;;;;;5069586;28;20446;-60
2023/09/18 06:05:06;;;;;;;26.85;20.13;;;;;;;;;;5070581;28;20135;-60
2023/09/18 06:07:33;;;;;;;27.20;19.52;;;;;;;;;;5070820;28;20136;-60
2023/09/18 06:09:59;;;;;;;30.98;21.92;;;;;;;;;;5070116;28;20412;-60
2023/09/18 06:12:25;;;;;;;28.23;20.42;;;;;;;;;;5070720;28;20507;-60
2023/09/18 06:14:52;;;;;;;29.58;21.52;;;;;;;;;;5070702;28;20036;-60
2023/09/18 06:17:18;;;;;;;30.60;22.40;;;;;;;;;;5069843;28;20152;-60
2023/09/18 06:19:45;;;;;;;30.52;22.83;;;;;;;;;;5070893;28;20032;-60
2023/09/18 06:22:12;;;;;;;29.50;21.85;;;;;;;;;;5070489;28;20524;-60
2023/09/18 06:24:38;;;;;;;34.13;21.42;;;;;;;;;;5069894;28;20101;-60
2023/09/18 06:27:05;;;;;;;32.97;22.77;;;;;;;;;;5070475;28;20051;-60
2023/09/18 06:29:31;;;;;;;32.75;22.25;;;;;;;;;;5070688;28;20123;-60
2023/09/18 06:31:58;;;;;;;34.95;22.88;;;;;;;;;;5069482;28;20286;-60
2023/09/18 06:34:24;;;;;;;31.63;22.88;;;;;;;;;;5070589;28;20049;-60
2023/09/18 06:36:50;;;;;;;33.03;24.08;;;;;;;;;;5070627;28;20063;-60
2023/09/18 06:39:17;;;;;;;38.35;25.48;;;;;;;;;;5069704;28;20408;-60
2023/09/18 06:41:43;;;;;;;33.75;24.13;;;;;;;;;;5070442;28;20045;-60
2023/09/18 06:44:09;;;;;;;30.23;24.50;;;;;;;;;;5069226;28;20493;-60
2023/09/18 06:46:36;;;;;;;41.92;27.38;;;;;;;;;;5073154;28;20045;-60
2023/09/18 06:49:03;;;;;;;37.97;25.92;;;;;;;;;;5074399;28;20048;-60
2023/09/18 06:51:29;;;;;;;44.67;26.95;;;;;;;;;;5074646;28;20424;-60
2023/09/18 06:53:57;;;;;;;42.88;27.02;;;;;;;;;;5073789;28;20106;-60
2023/09/18 06:56:24;;;;;;;39.60;27.17;;;;;;;;;;5074393;28;20052;-60
2023/09/18 06:58:51;;;;;;;37.88;24.98;;;;;;;;;;5073685;28;20122;-60
2023/09/18 07:01:20;;;;;;;38.15;24.83;;;;;;;;;;5074341;28;20048;-60
2023/09/18 07:03:50;;;;;;;47.42;29.02;;;;;;;;;;5073873;28;20123;-60
2023/09/18 07:06:16;;;;;;;45.53;28.67;;;;;;;;;;5073421;28;20044;-60
2023/09/18 07:08:45;;;;;;;44.92;26.25;;;;;;;;;;5074220;28;20136;-60
2023/09/18 07:11:11;;;;;;;41.60;24.90;;;;;;;;;;5073788;28;20060;-60
2023/09/18 07:13:38;;;;;;;36.03;23.77;;;;;;;;;;5072747;28;20047;-60
2023/09/18 07:16:05;;;;;;;32.60;21.10;;;;;;;;;;5074093;28;20123;-60
2023/09/18 07:18:31;;;;;;;40.15;22.92;;;;;;;;;;5074067;28;20041;-60
2023/09/18 07:20:57;;;;;;;30.75;19.20;;;;;;;;;;5073322;28;20040;-60
2023/09/18 07:23:23;;;;;;;32.22;19.60;;;;;;;;;;5073801;28;20059;-60
2023/09/18 07:25:49;;;;;;;30.35;19.17;;;;;;;;;;5073803;28;20037;-60
2023/09/18 07:28:17;;;;;;;28.95;17.20;;;;;;;;;;5073255;28;20071;-60
2023/09/18 07:30:47;;;;;;;25.00;16.20;;;;;;;;;;5073721;28;20525;-60
2023/09/18 07:33:20;;;;;;;26.02;14.52;;;;;;;;;;5073564;28;20036;-60
2023/09/18 07:35:47;;;;;;;20.55;12.60;;;;;;;;;;5071592;28;20044;-60
2023/09/18 07:38:13;;;;;;;24.13;12.70;;;;;;;;;;5073646;28;20070;-60
2023/09/18 07:40:40;;;;;;;20.60;11.40;;;;;;;;;;5073756;28;20105;-60
2023/09/18 07:43:06;;;;;;;20.13;10.75;;;;;;;;;;5072891;28;20345;-60
2023/09/18 07:45:32;;;;;;;18.02;10.68;;;;;;;;;;5073703;28;20102;-60
2023/09/18 07:47:58;;;;;;;19.30;10.48;;;;;;;;;;5058567;28;20052;-60
2023/09/18 07:50:25;;;;;;;17.55;9.57;;;;;;;;;;5073510;28;20051;-60
2023/09/18 07:52:51;;;;;;;15.15;9.13;;;;;;;;;;5073349;28;20469;-60
2023/09/18 07:55:17;;;;;;;18.45;8.90;;;;;;;;;;5054736;28;20060;-60
2023/09/18 07:57:45;;;;;;;15.63;8.93;;;;;;;;;;5072652;28;20480;-60
2023/09/18 08:00:12;;;;;;;14.00;7.82;;;;;;;;;;5072093;28;20044;-60
2023/09/18 08:02:39;;;;;;;15.85;8.07;;;;;;;;;;5071436;28;20048;-60
2023/09/18 08:05:07;;;;;;;15.88;8.15;;;;;;;;;;5073209;28;20352;-60
2023/09/18 08:07:33;;;;;;;13.77;8.43;;;;;;;;;;5073139;28;20445;-60
2023/09/18 08:10:01;;;;;;;17.95;7.68;;;;;;;;;;5072201;28;20051;-60
2023/09/18 08:12:27;;;;;;;15.35;7.68;;;;;;;;;;5073324;28;20048;-60
2023/09/18 08:14:54;;;;;;;13.32;6.30;;;;;;;;;;5073167;28;20127;-60
2023/09/18 08:17:20;;;;;;;14.07;6.38;;;;;;;;;;5072179;28;20072;-60
2023/09/18 08:19:46;;;;;;;12.43;6.15;;;;;;;;;;5072940;28;20045;-60
2023/09/18 08:22:15;;;;;;;18.02;6.38;;;;;;;;;;5072629;28;20036;-60
2023/09/18 08:24:41;;;;;;;13.52;6.18;;;;;;;;;;5072294;28;20044;-60
2023/09/18 08:27:08;;;;;;;12.05;6.60;;;;;;;;;;5072753;28;20051;-60
2023/09/18 08:29:34;;;;;;;15.30;6.78;;;;;;;;;;5072780;28;20048;-60
2023/09/18 08:32:00;;;;;;;11.57;5.65;;;;;;;;;;5071817;28;20040;-60
2023/09/18 08:34:26;;;;;;;11.32;5.85;;;;;;;;;;5071931;28;20096;-60
2023/09/18 08:36:52;;;;;;;11.20;5.85;;;;;;;;;;5072666;28;20089;-60
2023/09/18 08:39:18;;;;;;;10.95;6.63;;;;;;;;;;5071740;28;20040;-60
2023/09/18 08:41:48;;;;;;;14.40;6.80;;;;;;;;;;5071328;28;20563;-60
2023/09/18 08:44:14;;;;;;;17.88;7.68;;;;;;;;;;5071604;28;20041;-60
2023/09/18 08:46:41;;;;;;;17.50;8.63;;;;;;;;;;5072458;28;20045;-60
2023/09/18 08:49:08;;;;;;;18.00;9.98;;;;;;;;;;5070605;28;20134;-60
2023/09/18 08:51:35;;;;;;;22.52;10.90;;;;;;;;;;5071641;28;20131;-60
2023/09/18 08:54:03;;;;;;;23.48;11.73;;;;;;;;;;5072213;28;20052;-60
2023/09/18 08:56:29;;;;;;;20.90;11.45;;;;;;;;;;5058133;28;20040;-60
2023/09/18 08:58:56;;;;;;;27.90;13.23;;;;;;;;;;5070158;28;20036;-60
2023/09/18 09:01:23;;;;;;;24.08;13.52;;;;;;;;;;5071848;28;20044;-60
2023/09/18 09:03:49;;;;;;;20.15;12.95;;;;;;;;;;5070965;28;20056;-60
2023/09/18 09:06:16;;;;;;;24.30;13.57;;;;;;;;;;5071090;28;20048;-60
2023/09/18 09:08:43;;;;;;;23.23;13.55;;;;;;;;;;5070743;28;20051;-60
2023/09/18 09:11:09;;;;;;;25.40;14.05;;;;;;;;;;5070446;28;20049;-60
2023/09/18 09:13:35;;;;;;;24.45;15.15;;;;;;;;;;5071066;28;20071;-60
2023/09/18 09:16:02;;;;;;;25.42;15.30;;;;;;;;;;5071733;28;20037;-60
2023/09/18 09:18:29;;;;;;;25.90;14.27;;;;;;;;;;5071831;28;20107;-60
2023/09/18 09:20:59;;;;;;;22.63;14.50;;;;;;;;;;5070941;28;20055;-60
2023/09/18 09:23:52;;;;;;;23.35;14.50;;;;;;;;;;5071646;28;20093;-60
2023/09/18 09:26:19;;;;;;;26.08;15.80;;;;;;;;;;5056613;28;20570;-60
2023/09/18 09:28:45;;;;;;;23.90;15.82;;;;;;;;;;5071425;28;20092;-60
2023/09/18 09:31:13;;;;;;;24.67;15.35;;;;;;;;;;5072019;28;20120;-60
2023/09/18 09:33:53;;;;;;;25.77;15.77;;;;;;;;;;5070509;28;20071;-60
2023/09/18 09:36:19;;;;;;;26.98;17.48;;;;;;;;;;5071647;28;20450;-60
2023/09/18 09:38:46;;;;;;;28.15;16.98;;;;;;;;;;5071265;28;20387;-60
2023/09/18 09:41:15;;;;;;;25.65;17.50;;;;;;;;;;5071033;28;20495;-60
2023/09/18 09:43:43;;;;;;;28.58;16.63;;;;;;;;;;5071228;28;20479;-60
2023/09/18 09:46:16;;;;;;;23.40;16.70;;;;;;;;;;5071230;28;20112;-60
2023/09/18 09:48:59;;;;;;;22.42;16.35;;;;;;;;;;5070411;28;20106;-60
2023/09/18 09:51:25;;;;;;;23.48;16.75;;;;;;;;;;5071375;28;20041;-60
2023/09/18 09:53:51;;;;;;;21.23;16.73;;;;;;;;;;5071078;28;20471;-60
2023/09/18 09:56:21;;;;;;;21.08;16.70;;;;;;;;;;5070287;28;20108;-60
2023/09/18 09:59:05;;;;;;;23.70;16.35;;;;;;;;;;5071146;28;20536;-60
2023/09/18 10:01:31;;;;;;;25.42;19.20;;;;;;;;;;5069651;28;20048;-60
2023/09/18 10:04:00;;;;;;;22.33;16.90;;;;;;;;;;5070371;28;20503;-60
2023/09/18 10:06:30;;;;;;;21.33;18.23;;;;;;;;;;5068714;28;20558;-60
2023/09/18 10:08:56;;;;;;;26.27;19.17;;;;;;;;;;5056820;28;20044;-60
2023/09/18 10:11:24;;;;;;;21.73;17.90;;;;;;;;;;5070998;28;20345;-60
2023/09/18 10:13:53;;;;;;;21.75;17.33;;;;;;;;;;5070273;28;20853;-60
2023/09/18 10:16:20;;;;;;;22.20;16.67;;;;;;;;;;5069959;28;20040;-60
2023/09/18 10:19:06;;;;;;;19.00;15.65;;;;;;;;;;5070296;28;20036;-60
2023/09/18 10:21:50;;;;;;;21.67;16.58;;;;;;;;;;5070923;28;20041;-60
2023/09/18 10:24:19;;;;;;;19.50;17.60;;;;;;;;;;5056824;28;20052;-60
2023/09/18 10:26:58;;;;;;;17.38;15.60;;;;;;;;;;5070649;28;20045;-60
2023/09/18 10:29:25;;;;;;;18.55;16.63;;;;;;;;;;5070951;28;20048;-60
2023/09/18 10:31:53;;;;;;;20.67;15.40;;;;;;;;;;5069265;28;20111;-60
2023/09/18 10:34:19;;;;;;;17.70;15.82;;;;;;;;;;5070626;28;20075;-60
2023/09/18 10:36:49;;;;;;;16.65;15.02;;;;;;;;;;5070030;28;20337;-60
2023/09/18 10:39:19;;;;;;;20.70;15.60;;;;;;;;;;5070357;28;20036;-60
2023/09/18 10:41:49;;;;;;;17.00;13.00;;;;;;;;;;5070535;28;20075;-60
2023/09/18 10:44:17;;;;;;;15.30;12.60;;;;;;;;;;5069858;28;20036;-60
2023/09/18 10:46:44;;;;;;;11.80;10.60;;;;;;;;;;5070489;28;20123;-60
2023/09/18 10:49:10;;;;;;;11.95;9.80;;;;;;;;;;5070226;28;20520;-60
2023/09/18 10:51:41;;;;;;;11.57;8.93;;;;;;;;;;5069778;28;20045;-60
2023/09/18 10:54:11;;;;;;;10.80;9.55;;;;;;;;;;5070176;28;20404;-60
2023/09/18 10:56:39;;;;;;;12.43;9.20;;;;;;;;;;5069415;28;20479;-60
2023/09/18 10:59:07;;;;;;;11.95;9.57;;;;;;;;;;5102197;28;20124;-60
2023/09/18 11:01:36;;;;;;;10.43;9.27;;;;;;;;;;5070258;28;20093;-60
2023/09/18 11:04:03;;;;;;;11.30;9.07;;;;;;;;;;5070255;28;20114;-60
2023/09/18 11:06:30;;;;;;;9.30;8.18;;;;;;;;;;5069444;28;20044;-60
2023/09/18 11:09:03;;;;;;;17.20;8.50;;;;;;;;;;5070411;28;20164;-60
2023/09/18 11:11:32;;;;;;;10.80;6.22;;;;;;;;;;5070395;28;20450;-60
2023/09/18 11:13:59;;;;;;;10.05;5.75;;;;;;;;;;5055537;28;20076;-60
2023/09/18 11:16:28;;;;;;;15.20;6.30;;;;;;;;;;5070654;28;20128;-60
2023/09/18 11:19:08;;;;;;;9.27;5.60;;;;;;;;;;5069271;28;20119;-60
2023/09/18 11:21:35;;;;;;;10.50;4.78;;;;;;;;;;5070371;28;20041;-61
2023/09/18 11:24:04;;;;;;;7.63;4.00;;;;;;;;;;5069928;28;20048;-61
2023/09/18 11:26:37;;;;;;;7.72;4.28;;;;;;;;;;5069327;28;20063;-60
2023/09/18 11:29:10;;;;;;;9.80;4.13;;;;;;;;;;5068568;28;20044;-61
2023/09/18 11:31:43;;;;;;;8.73;3.60;;;;;;;;;;5071430;28;20045;-61
2023/09/18 11:34:13;;;;;;;8.32;3.30;;;;;;;;;;5073019;28;20048;-61
2023/09/18 11:36:39;;;;;;;8.50;2.90;;;;;;;;;;5073886;28;20106;-61
2023/09/18 11:39:06;;;;;;;6.65;3.25;;;;;;;;;;5073512;28;20504;-61
2023/09/18 11:41:38;;;;;;;9.45;2.72;;;;;;;;;;5072785;28;20101;-61
2023/09/18 11:44:13;;;;;;;5.53;2.33;;;;;;;;;;5073512;28;20055;-61
2023/09/18 11:46:40;;;;;;;9.07;2.60;;;;;;;;;;5073490;28;20052;-61
2023/09/18 11:49:07;;;;;;;7.28;2.70;;;;;;;;;;5072478;28;20075;-61
2023/09/18 11:51:35;;;;;;;9.10;3.60;;;;;;;;;;5073537;28;20101;-61
2023/09/18 11:54:01;;;;;;;6.03;2.60;;;;;;;;;;5072068;28;20064;-61
2023/09/18 11:56:27;;;;;;;7.35;2.97;;;;;;;;;;5072797;28;20128;-61
2023/09/18 11:58:54;;;;;;;7.43;3.08;;;;;;;;;;5073899;28;20040;-61
2023/09/18 12:01:22;;;;;;;7.10;3.00;;;;;;;;;;5072521;28;20090;-61
2023/09/18 12:03:55;;;;;;;8.43;3.80;;;;;;;;;;5073359;28;20056;-61
2023/09/18 12:06:22;;;;;;;7.28;4.32;;;;;;;;;;5073148;28;20044;-61
2023/09/18 12:08:50;;;;;;;9.27;4.00;;;;;;;;;;5070913;28;20045;-60
2023/09/18 12:11:19;;;;;;;8.25;3.70;;;;;;;;;;5073076;28;20504;-61
2023/09/18 12:13:46;;;;;;;10.68;4.50;;;;;;;;;;5072927;28;20045;-61
2023/09/18 12:16:13;;;;;;;6.93;4.03;;;;;;;;;;5072181;28;20131;-61
2023/09/18 12:18:45;;;;;;;9.75;4.00;;;;;;;;;;5073002;28;20048;-60
2023/09/18 12:21:13;;;;;;;5.97;2.93;;;;;;;;;;5072999;28;20456;-60
2023/09/18 12:23:39;;;;;;;8.75;3.47;;;;;;;;;;5072012;28;20048;-61
2023/09/18 12:26:10;;;;;;;10.77;3.58;;;;;;;;;;5071799;28;20052;-61
2023/09/18 12:28:36;;;;;;;7.38;3.28;;;;;;;;;;5072774;28;20048;-60
2023/09/18 12:31:06;;;;;;;8.73;3.80;;;;;;;;;;5071991;28;20203;-61
2023/09/18 12:33:39;;;;;;;7.03;3.70;;;;;;;;;;5072829;28;20048;-61
2023/09/18 12:36:06;;;;;;;8.32;3.47;;;;;;;;;;5072749;28;20053;-61
2023/09/18 12:38:33;;;;;;;9.77;4.20;;;;;;;;;;5071772;28;20040;-61
2023/09/18 12:41:09;;;;;;;5.88;3.25;;;;;;;;;;5072401;28;20048;-61
2023/09/18 12:43:42;;;;;;;7.85;3.70;;;;;;;;;;5071658;28;20467;-61
2023/09/18 12:46:08;;;;;;;;;;;;;;;;;;5072800;28;20048;-61
2023/09/18 12:48:38;;;;;;;7.60;3.17;;;;;;;;;;5072408;28;19943;-61
2023/09/18 12:51:07;;;;;;;7.22;3.33;;;;;;;;;;5071494;28;20090;-61
2023/09/18 12:53:34;;;;;;;8.70;3.17;;;;;;;;;;5070713;28;20049;-61
2023/09/18 12:56:13;;;;;;;7.28;3.55;;;;;;;;;;5072357;28;20044;-60
2023/09/18 12:58:39;;;;;;;11.13;3.67;;;;;;;;;;5071329;28;20051;-61
2023/09/18 13:01:09;;;;;;;6.82;3.50;;;;;;;;;;5072135;28;20049;-60
2023/09/18 13:03:36;;;;;;;8.27;3.38;;;;;;;;;;5072145;28;20044;-61
2023/09/18 13:06:12;;;;;;;6.40;3.25;;;;;;;;;;5071267;28;20037;-60
2023/09/18 13:08:39;;;;;;;7.00;3.47;;;;;;;;;;5071958;28;20123;-61
2023/09/18 13:11:06;;;;;;;6.25;3.63;;;;;;;;;;5072083;28;20052;-60
2023/09/18 13:13:32;;;;;;;5.95;3.72;;;;;;;;;;5103445;28;20041;-60
2023/09/18 13:16:00;;;;;;;4.97;3.42;;;;;;;;;;5072024;28;20050;-60
2023/09/18 13:18:26;;;;;;;8.07;4.00;;;;;;;;;;5071067;28;20052;-61
2023/09/18 13:20:53;;;;;;;6.65;3.20;;;;;;;;;;5071949;28;20039;-61
2023/09/18 13:23:20;;;;;;;6.97;4.13;;;;;;;;;;5071170;28;20140;-61
2023/09/18 13:25:47;;;;;;;6.53;3.80;;;;;;;;;;5070777;28;20045;-60
2023/09/18 13:28:14;;;;;;;8.05;3.28;;;;;;;;;;5071734;28;20056;-60
2023/09/18 13:30:42;;;;;;;6.75;3.45;;;;;;;;;;5071713;28;20051;-60
2023/09/18 13:33:09;;;;;;;8.25;4.22;;;;;;;;;;5070734;28;20068;-60
2023/09/18 13:35:37;;;;;;;8.25;3.88;;;;;;;;;;5071477;28;20079;-60
2023/09/18 13:38:05;;;;;;;7.10;4.07;;;;;;;;;;5071539;28;20079;-60
2023/09/18 13:40:38;;;;;;;7.10;4.03;;;;;;;;;;5070363;28;20164;-60
2023/09/18 13:43:09;;;;;;;5.75;3.25;;;;;;;;;;5071579;28;20048;-60
2023/09/18 13:45:35;;;;;;;10.23;3.92;;;;;;;;;;5071246;28;20085;-60
2023/09/18 13:48:05;;;;;;;7.13;3.95;;;;;;;;;;5070361;28;20045;-61
2023/09/18 13:50:31;;;;;;;8.27;3.88;;;;;;;;;;5071175;28;20129;-60
2023/09/18 13:52:59;;;;;;;9.80;4.13;;;;;;;;;;5070797;28;21599;-61
2023/09/18 13:55:25;;;;;;;6.50;4.32;;;;;;;;;;5069333;28;20127;-60
2023/09/18 13:57:51;;;;;;;13.00;5.32;;;;;;;;;;5070935;28;20045;-60
2023/09/18 14:00:18;;;;;;;12.75;6.20;;;;;;;;;;5071073;28;20150;-60
2023/09/18 14:02:44;;;;;;;7.07;4.75;;;;;;;;;;5070105;28;20048;-60
2023/09/18 14:05:10;;;;;;;9.10;4.05;;;;;;;;;;5071191;28;20405;-60
2023/09/18 14:07:41;;;;;;;4.25;2.63;;;;;;;;;;5070560;28;20545;-60
2023/09/18 14:10:07;;;;;;;10.35;2.65;;;;;;;;;;5068724;28;20212;-60
2023/09/18 14:12:34;;;;;;;6.95;2.90;;;;;;;;;;5070651;28;20396;-60
2023/09/18 14:15:00;;;;;;;3.53;1.80;;;;;;;;;;5069991;28;20130;-60
2023/09/18 14:17:26;;;;;;;7.80;2.30;;;;;;;;;;5070844;28;20127;-60
2023/09/18 14:19:53;;;;;;;8.23;2.30;;;;;;;;;;5070854;28;20127;-60
2023/09/18 14:22:19;;;;;;;4.63;2.50;;;;;;;;;;5069674;28;20044;-60
2023/09/18 14:24:45;;;;;;;4.25;2.00;;;;;;;;;;5070825;28;20139;-60